createdAt,value
2023-07-05T00:00:22.039Z,17.33
2023-07-05T00:03:13.887Z,17.34
2023-07-05T00:05:45.688Z,17.31
2023-07-05T00:08:17.337Z,17.28
2023-07-05T00:10:49.367Z,17.26
2023-07-05T00:13:21.096Z,17.23
2023-07-05T00:15:53.164Z,17.20
2023-07-05T00:18:25.132Z,17.20
2023-07-05T00:21:00.614Z,17.23
2023-07-05T00:23:33.728Z,17.23
2023-07-05T00:26:06.660Z,17.25
2023-07-05T00:28:38.499Z,17.27
2023-07-05T00:31:10.149Z,17.30
2023-07-05T00:33:41.923Z,17.39
2023-07-05T00:36:13.639Z,17.46
2023-07-05T00:38:45.680Z,17.51
2023-07-05T00:41:18.541Z,17.55
2023-07-05T00:43:52.821Z,17.52
2023-07-05T00:46:27.003Z,17.47
2023-07-05T00:49:04.845Z,17.43
2023-07-05T00:51:42.750Z,17.44
2023-07-05T00:54:16.498Z,17.43
2023-07-05T00:56:52.988Z,17.48
2023-07-05T00:59:27.820Z,17.49
2023-07-05T01:02:03.782Z,17.50
2023-07-05T01:04:37.024Z,17.49
2023-07-05T01:07:09.070Z,17.49
2023-07-05T01:09:41.069Z,17.47
2023-07-05T01:12:21.131Z,17.48
2023-07-05T01:15:02.625Z,17.49
2023-07-05T01:17:44.262Z,17.48
2023-07-05T01:20:29.542Z,17.48
2023-07-05T01:23:30.393Z,17.39
2023-07-05T01:26:22.229Z,17.29
2023-07-05T01:29:32.960Z,17.28
2023-07-05T01:32:13.427Z,17.18
2023-07-05T01:34:52.174Z,17.04
2023-07-05T01:37:35.379Z,16.98
2023-07-05T01:40:37.722Z,16.97
2023-07-05T01:43:13.399Z,16.93
2023-07-05T01:45:55.274Z,16.90
2023-07-05T01:48:35.710Z,16.94
2023-07-05T01:51:14.353Z,17.01
2023-07-05T01:53:55.186Z,16.99
2023-07-05T01:56:33.207Z,17.02
2023-07-05T01:59:06.479Z,16.99
2023-07-05T02:01:39.821Z,16.93
2023-07-05T02:04:15.635Z,16.93
2023-07-05T02:06:48.253Z,16.94
2023-07-05T02:09:19.948Z,16.99
2023-07-05T02:11:52.103Z,17.02
2023-07-05T02:14:24.436Z,17.07
2023-07-05T02:16:56.102Z,17.17
2023-07-05T02:19:27.940Z,17.24
2023-07-05T02:21:59.656Z,17.27
2023-07-05T02:24:31.317Z,17.28
2023-07-05T02:27:02.978Z,17.27
2023-07-05T02:29:34.733Z,17.24
2023-07-05T02:32:07.199Z,17.22
2023-07-05T02:34:40.715Z,17.19
2023-07-05T02:37:13.275Z,17.19
2023-07-05T02:39:44.885Z,17.25
2023-07-05T02:42:16.573Z,17.30
2023-07-05T02:44:50.385Z,17.32
2023-07-05T02:47:22.730Z,17.33
2023-07-05T02:49:54.819Z,17.38
2023-07-05T02:52:27.206Z,17.41
2023-07-05T02:54:58.865Z,17.42
2023-07-05T02:57:30.533Z,17.43
2023-07-05T03:00:02.492Z,17.44
2023-07-05T03:02:34.941Z,17.47
2023-07-05T03:05:12.284Z,17.49
2023-07-05T03:07:44.228Z,17.52
2023-07-05T03:10:16.138Z,17.53
2023-07-05T03:12:47.897Z,17.53
2023-07-05T03:15:21.279Z,17.53
2023-07-05T03:17:53.500Z,17.52
2023-07-05T03:20:26.111Z,17.51
2023-07-05T03:22:58.129Z,17.55
2023-07-05T03:25:29.745Z,17.57
2023-07-05T03:28:03.463Z,17.58
2023-07-05T03:30:36.288Z,17.57
2023-07-05T03:33:08.049Z,17.57
2023-07-05T03:35:40.334Z,17.57
2023-07-05T03:38:12.315Z,17.56
2023-07-05T03:40:45.022Z,17.55
2023-07-05T03:43:17.215Z,17.55
2023-07-05T03:45:48.873Z,17.53
2023-07-05T03:48:21.100Z,17.49
2023-07-05T03:50:56.455Z,17.49
2023-07-05T03:53:31.914Z,17.47
2023-07-05T03:56:06.092Z,17.46
2023-07-05T03:58:37.816Z,17.48
2023-07-05T04:01:13.856Z,17.50
2023-07-05T04:03:47.142Z,17.51
2023-07-05T04:06:19.826Z,17.51
2023-07-05T04:08:51.861Z,17.49
2023-07-05T04:11:24.189Z,17.48
2023-07-05T04:13:57.398Z,17.43
2023-07-05T04:16:29.935Z,17.43
2023-07-05T04:19:01.700Z,17.43
2023-07-05T04:21:33.827Z,17.45
2023-07-05T04:24:06.399Z,17.46
2023-07-05T04:26:38.535Z,17.43
2023-07-05T04:29:10.560Z,17.44
2023-07-05T04:31:42.251Z,17.46
2023-07-05T04:34:13.909Z,17.51
2023-07-05T04:36:46.229Z,17.53
2023-07-05T04:39:18.640Z,17.53
2023-07-05T04:41:50.389Z,17.56
2023-07-05T04:44:22.132Z,17.58
2023-07-05T04:46:53.753Z,17.57
2023-07-05T04:49:25.577Z,17.56
2023-07-05T04:51:57.548Z,17.59
2023-07-05T04:54:29.168Z,17.62
2023-07-05T04:57:01.261Z,17.66
2023-07-05T04:59:32.996Z,17.69
2023-07-05T05:02:06.730Z,17.73
2023-07-05T05:04:39.149Z,17.76
2023-07-05T05:07:46.902Z,17.80
2023-07-05T05:10:19.563Z,17.88
2023-07-05T05:12:51.484Z,17.92
2023-07-05T05:15:23.196Z,17.96
2023-07-05T05:17:55.165Z,17.98
2023-07-05T05:20:27.225Z,17.99
2023-07-05T05:22:58.927Z,17.98
2023-07-05T05:25:31.061Z,17.97
2023-07-05T05:28:03.148Z,18.00
2023-07-05T05:30:36.330Z,18.02
2023-07-05T05:33:08.827Z,18.03
2023-07-05T05:35:40.615Z,18.03
2023-07-05T05:38:12.411Z,18.03
2023-07-05T05:40:44.035Z,18.02
2023-07-05T05:43:16.000Z,18.00
2023-07-05T05:45:47.876Z,17.97
2023-07-05T05:48:20.026Z,17.95
2023-07-05T05:50:51.796Z,17.95
2023-07-05T05:53:23.583Z,17.96
2023-07-05T05:55:56.629Z,17.94
2023-07-05T05:58:28.714Z,17.97
2023-07-05T06:01:01.966Z,17.99
2023-07-05T06:03:34.114Z,18.01
2023-07-05T06:06:06.024Z,18.04
2023-07-05T06:08:37.550Z,18.05
2023-07-05T06:11:09.217Z,18.04
2023-07-05T06:13:41.052Z,18.03
2023-07-05T06:16:15.104Z,17.98
2023-07-05T06:18:48.049Z,17.94
2023-07-05T06:21:20.264Z,17.89
2023-07-05T06:23:52.252Z,17.82
2023-07-05T06:26:23.883Z,17.76
2023-07-05T06:28:55.699Z,17.73
2023-07-05T06:31:34.358Z,17.67
2023-07-05T06:34:06.777Z,17.60
2023-07-05T06:36:38.791Z,17.55
2023-07-05T06:39:10.720Z,17.53
2023-07-05T06:41:42.952Z,17.49
2023-07-05T06:44:14.903Z,17.48
2023-07-05T06:46:47.153Z,17.46
2023-07-05T06:49:20.241Z,17.45
2023-07-05T06:51:52.983Z,17.45
2023-07-05T06:54:24.912Z,17.44
2023-07-05T06:56:57.302Z,17.42
2023-07-05T06:59:29.528Z,17.40
2023-07-05T07:02:02.816Z,17.34
2023-07-05T07:04:34.973Z,17.30
2023-07-05T07:07:08.241Z,17.30
2023-07-05T07:09:42.244Z,17.30
2023-07-05T07:12:14.493Z,17.31
2023-07-05T07:14:46.520Z,17.34
2023-07-05T07:17:18.370Z,17.36
2023-07-05T07:19:51.776Z,17.41
2023-07-05T07:22:25.266Z,17.47
2023-07-05T07:24:57.477Z,17.50
2023-07-05T07:27:29.170Z,17.53
2023-07-05T07:30:01.262Z,17.54
2023-07-05T07:32:33.412Z,17.54
2023-07-05T07:35:05.892Z,17.54
2023-07-05T07:37:37.531Z,17.54
2023-07-05T07:40:11.549Z,17.57
2023-07-05T07:42:43.765Z,17.59
2023-07-05T07:45:15.946Z,17.59
2023-07-05T07:47:47.661Z,17.59
2023-07-05T07:50:19.492Z,17.59
2023-07-05T07:52:51.208Z,17.59
2023-07-05T07:55:23.781Z,17.59
2023-07-05T07:57:55.831Z,17.62
2023-07-05T08:00:29.095Z,17.66
2023-07-05T08:03:01.285Z,17.65
2023-07-05T08:05:34.622Z,17.66
2023-07-05T08:08:06.718Z,17.70
2023-07-05T08:10:38.656Z,17.73
2023-07-05T08:13:10.432Z,17.72
2023-07-05T08:15:42.149Z,17.65
2023-07-05T08:18:14.109Z,17.56
2023-07-05T08:20:47.274Z,17.53
2023-07-05T08:23:19.024Z,17.51
2023-07-05T08:25:56.341Z,17.49
2023-07-05T08:28:29.432Z,17.51
2023-07-05T08:31:03.632Z,17.52
2023-07-05T08:33:37.244Z,17.54
2023-07-05T08:36:20.230Z,17.55
2023-07-05T08:38:53.365Z,17.55
2023-07-05T08:41:32.809Z,17.55
2023-07-05T08:44:16.394Z,17.51
2023-07-05T08:46:55.880Z,17.46
2023-07-05T08:49:31.552Z,17.44
2023-07-05T08:52:04.762Z,17.45
2023-07-05T08:54:46.936Z,17.47
2023-07-05T08:57:25.424Z,17.50
2023-07-05T09:00:01.758Z,17.52
2023-07-05T09:02:33.577Z,17.56
2023-07-05T09:05:14.951Z,17.61
2023-07-05T09:07:56.175Z,17.61
2023-07-05T09:10:35.970Z,17.63
2023-07-05T09:13:18.010Z,17.62
2023-07-05T09:15:58.490Z,17.63
2023-07-05T09:18:36.001Z,17.60
2023-07-05T09:21:23.943Z,17.59
2023-07-05T09:24:02.474Z,17.58
2023-07-05T09:26:39.314Z,17.57
2023-07-05T09:29:18.681Z,17.59
2023-07-05T09:31:53.067Z,17.59
2023-07-05T09:34:30.956Z,17.60
2023-07-05T09:37:09.731Z,17.67
2023-07-05T09:39:53.451Z,17.77
2023-07-05T09:42:31.122Z,17.85
2023-07-05T09:45:03.844Z,17.91
2023-07-05T09:47:35.924Z,17.94
2023-07-05T09:50:17.609Z,17.96
2023-07-05T09:52:53.807Z,17.98
2023-07-05T09:55:30.086Z,18.02
2023-07-05T09:58:05.953Z,18.07
2023-07-05T10:00:38.925Z,18.12
2023-07-05T10:03:16.280Z,18.18
2023-07-05T10:05:56.310Z,18.20
2023-07-05T10:08:28.413Z,18.22
2023-07-05T10:11:04.717Z,18.23
2023-07-05T10:13:34.800Z,18.24
2023-07-05T10:16:06.941Z,18.23
2023-07-05T10:18:42.211Z,18.24
2023-07-05T10:21:20.865Z,18.31
2023-07-05T10:23:52.857Z,18.36
2023-07-05T10:26:25.696Z,18.39
2023-07-05T10:28:59.665Z,18.42
2023-07-05T10:31:33.228Z,18.44
2023-07-05T10:34:21.549Z,18.47
2023-07-05T10:36:54.384Z,18.54
2023-07-05T10:39:28.588Z,18.59
2023-07-05T10:42:02.423Z,18.63
2023-07-05T10:44:37.781Z,18.63
2023-07-05T10:47:15.556Z,18.61
2023-07-05T10:49:51.754Z,18.58
2023-07-05T10:52:26.145Z,18.57
2023-07-05T10:55:10.229Z,18.60
2023-07-05T10:57:45.966Z,18.71
2023-07-05T11:00:32.394Z,18.77
2023-07-05T11:03:11.893Z,18.83
2023-07-05T11:05:47.588Z,18.86
2023-07-05T11:08:28.132Z,18.86
2023-07-05T11:11:04.700Z,18.88
2023-07-05T11:13:36.533Z,18.95
2023-07-05T11:16:08.960Z,18.97
2023-07-05T11:18:40.941Z,18.98
2023-07-05T11:21:37.353Z,19.10
2023-07-05T11:24:10.814Z,19.23
2023-07-05T11:26:46.003Z,19.34
2023-07-05T11:29:53.357Z,19.45
2023-07-05T11:32:29.785Z,19.56
2023-07-05T11:35:04.511Z,19.65
2023-07-05T11:37:43.967Z,19.71
2023-07-05T11:41:02.307Z,19.75
2023-07-05T11:43:39.640Z,19.84
2023-07-05T11:46:38.873Z,19.84
2023-07-05T11:49:35.373Z,19.86
2023-07-05T11:52:23.688Z,19.86
2023-07-05T11:55:05.280Z,19.81
2023-07-05T11:57:42.395Z,19.83
2023-07-05T12:00:19.657Z,19.83
2023-07-05T12:02:56.669Z,19.86
2023-07-05T12:05:32.531Z,19.89
2023-07-05T12:08:20.332Z,19.94
2023-07-05T12:10:56.291Z,20.04
2023-07-05T12:13:33.933Z,20.11
2023-07-05T12:16:09.218Z,20.11
2023-07-05T12:18:41.142Z,20.10
2023-07-05T12:21:15.312Z,20.15
2023-07-05T12:23:51.832Z,20.20
2023-07-05T12:26:28.808Z,20.31
2023-07-05T12:29:04.835Z,20.39
2023-07-05T12:31:36.488Z,20.37
2023-07-05T12:34:20.399Z,20.32
2023-07-05T12:36:52.387Z,20.33
2023-07-05T12:39:24.487Z,20.36
2023-07-05T12:42:06.547Z,20.37
2023-07-05T12:44:40.463Z,20.32
2023-07-05T12:47:16.631Z,20.24
2023-07-05T12:49:46.971Z,20.20
2023-07-05T12:52:26.193Z,20.27
2023-07-05T12:54:58.240Z,20.27
2023-07-05T12:57:34.616Z,20.29
2023-07-05T13:00:12.599Z,20.24
2023-07-05T13:02:46.941Z,20.21
2023-07-05T13:05:19.567Z,20.19
2023-07-05T13:07:55.144Z,20.24
2023-07-05T13:10:27.020Z,20.30
2023-07-05T13:13:00.592Z,20.35
2023-07-05T13:15:39.637Z,20.45
2023-07-05T13:18:28.018Z,20.53
2023-07-05T13:21:17.383Z,20.66
2023-07-05T13:23:51.774Z,20.73
2023-07-05T13:26:33.654Z,20.78
2023-07-05T13:29:17.373Z,20.89
2023-07-05T13:31:53.658Z,21.01
2023-07-05T13:34:26.849Z,21.09
2023-07-05T13:37:02.779Z,21.10
2023-07-05T13:39:37.714Z,21.11
2023-07-05T13:42:14.448Z,21.19
2023-07-05T13:44:49.366Z,21.22
2023-07-05T13:47:21.569Z,21.22
2023-07-05T13:49:53.757Z,21.14
2023-07-05T13:52:26.244Z,21.06
2023-07-05T13:54:57.995Z,21.04
2023-07-05T13:57:30.537Z,21.01
2023-07-05T14:00:02.274Z,21.01
2023-07-05T14:02:35.957Z,21.02
2023-07-05T14:05:11.045Z,21.09
2023-07-05T14:07:42.978Z,21.25
2023-07-05T14:10:16.913Z,21.35
2023-07-05T14:12:48.843Z,21.38
2023-07-05T14:15:38.615Z,21.38
2023-07-05T14:18:15.989Z,21.35
2023-07-05T14:20:48.860Z,21.29
2023-07-05T14:23:21.092Z,21.24
2023-07-05T14:25:53.912Z,21.20
2023-07-05T14:28:25.782Z,21.17
2023-07-05T14:30:57.754Z,21.18
2023-07-05T14:33:29.994Z,21.20
2023-07-05T14:36:02.230Z,21.23
2023-07-05T14:38:34.313Z,21.23
2023-07-05T14:41:06.015Z,21.21
2023-07-05T14:43:37.978Z,21.21
2023-07-05T14:46:10.240Z,21.23
2023-07-05T14:48:42.584Z,21.27
2023-07-05T14:51:16.969Z,21.30
2023-07-05T14:53:49.397Z,21.29
2023-07-05T14:56:21.147Z,21.27
2023-07-05T14:58:52.850Z,21.23
2023-07-05T15:01:24.693Z,21.16
2023-07-05T15:03:56.892Z,21.08
2023-07-05T15:06:28.524Z,21.02
2023-07-05T15:09:01.147Z,20.99
2023-07-05T15:11:33.086Z,21.20
2023-07-05T15:14:07.084Z,21.30
2023-07-05T15:16:39.152Z,21.33
2023-07-05T15:19:11.476Z,21.60
2023-07-05T15:21:44.567Z,21.63
2023-07-05T15:24:16.745Z,21.51
2023-07-05T15:26:48.541Z,21.46
2023-07-05T15:29:20.675Z,21.36
2023-07-05T15:31:53.711Z,21.33
2023-07-05T15:34:26.260Z,21.31
2023-07-05T15:36:58.091Z,21.26
2023-07-05T15:39:30.249Z,21.20
2023-07-05T15:42:01.870Z,21.11
2023-07-05T15:44:33.594Z,20.98
2023-07-05T15:47:06.103Z,20.88
2023-07-05T15:49:37.922Z,20.83
2023-07-05T15:52:11.082Z,20.79
2023-07-05T15:54:43.140Z,20.74
2023-07-05T15:57:16.470Z,20.69
2023-07-05T15:59:58.918Z,20.66
2023-07-05T16:02:41.769Z,20.60
2023-07-05T16:05:14.025Z,20.55
2023-07-05T16:07:45.689Z,20.49
2023-07-05T16:10:17.888Z,20.40
2023-07-05T16:12:52.060Z,20.28
2023-07-05T16:15:24.220Z,20.16
2023-07-05T16:17:56.627Z,20.06
2023-07-05T16:20:29.474Z,19.95
2023-07-05T16:23:01.570Z,19.85
2023-07-05T16:25:34.379Z,19.80
2023-07-05T16:28:07.091Z,19.76
2023-07-05T16:30:38.788Z,19.74
2023-07-05T16:33:10.774Z,19.69
2023-07-05T16:35:52.498Z,19.62
2023-07-05T16:38:24.384Z,19.58
2023-07-05T16:41:00.163Z,19.56
2023-07-05T16:43:32.542Z,19.54
2023-07-05T16:46:06.360Z,19.52
2023-07-05T16:48:38.548Z,19.50
2023-07-05T16:51:12.056Z,19.49
2023-07-05T16:53:45.196Z,19.44
2023-07-05T16:56:17.268Z,19.41
2023-07-05T16:58:50.919Z,19.40
2023-07-05T17:01:24.526Z,19.40
2023-07-05T17:03:56.872Z,19.40
2023-07-05T17:06:29.315Z,19.41
2023-07-05T17:09:02.542Z,19.39
2023-07-05T17:11:34.740Z,19.36
2023-07-05T17:14:07.320Z,19.33
2023-07-05T17:16:40.113Z,19.32
2023-07-05T17:19:13.610Z,19.32
2023-07-05T17:21:45.425Z,19.32
2023-07-05T17:24:23.151Z,19.32
2023-07-05T17:26:55.044Z,19.32
2023-07-05T17:29:26.793Z,19.32
2023-07-05T17:31:58.541Z,19.28
2023-07-05T17:34:31.150Z,19.23
2023-07-05T17:37:06.873Z,19.18
2023-07-05T17:39:38.645Z,19.12
2023-07-05T17:42:13.955Z,19.09
2023-07-05T17:44:45.683Z,19.06
2023-07-05T17:47:17.744Z,19.03
2023-07-05T17:49:49.647Z,18.99
2023-07-05T17:52:21.413Z,18.95
2023-07-05T17:54:53.317Z,18.87
2023-07-05T17:57:25.779Z,18.76
2023-07-05T17:59:57.431Z,18.69
2023-07-05T18:02:29.666Z,18.61
2023-07-05T18:05:02.033Z,18.53
2023-07-05T18:07:34.196Z,18.46
2023-07-05T18:10:07.168Z,18.41
2023-07-05T18:12:39.340Z,18.35
2023-07-05T18:15:12.956Z,18.29
2023-07-05T18:17:44.663Z,18.26
2023-07-05T18:20:17.374Z,18.20
2023-07-05T18:22:49.698Z,18.12
2023-07-05T18:25:21.950Z,18.06
2023-07-05T18:27:53.674Z,18.03
2023-07-05T18:30:25.366Z,17.98
2023-07-05T18:32:57.401Z,17.96
2023-07-05T18:35:29.434Z,17.91
2023-07-05T18:38:01.281Z,17.86
2023-07-05T18:40:33.952Z,17.84
2023-07-05T18:43:05.991Z,17.80
2023-07-05T18:45:56.902Z,17.74
2023-07-05T18:48:31.261Z,17.71
2023-07-05T18:51:03.523Z,17.67
2023-07-05T18:53:35.815Z,17.62
2023-07-05T18:56:10.831Z,17.55
2023-07-05T18:58:42.828Z,17.54
2023-07-05T19:01:17.628Z,17.53
2023-07-05T19:03:51.654Z,17.51
2023-07-05T19:06:25.221Z,17.50
2023-07-05T19:08:57.492Z,17.50
2023-07-05T19:11:31.879Z,17.47
2023-07-05T19:14:03.586Z,17.46
2023-07-05T19:16:35.350Z,17.46
2023-07-05T19:19:08.816Z,17.38
2023-07-05T19:21:40.898Z,17.31
2023-07-05T19:24:12.843Z,17.23
2023-07-05T19:26:45.436Z,17.19
2023-07-05T19:29:19.856Z,17.15
2023-07-05T19:31:51.976Z,17.11
2023-07-05T19:34:24.261Z,17.06
2023-07-05T19:36:56.671Z,16.99
2023-07-05T19:39:29.132Z,17.02
2023-07-05T19:42:02.167Z,17.03
2023-07-05T19:44:34.662Z,17.03
2023-07-05T19:47:07.623Z,17.02
2023-07-05T19:49:40.136Z,17.00
2023-07-05T19:52:12.401Z,16.96
2023-07-05T19:54:44.080Z,16.96
2023-07-05T19:57:15.775Z,16.95
2023-07-05T19:59:48.209Z,16.93
2023-07-05T20:02:20.862Z,16.92
2023-07-05T20:04:52.614Z,16.91
2023-07-05T20:07:24.305Z,16.90
2023-07-05T20:09:56.545Z,16.86
2023-07-05T20:12:28.409Z,16.83
2023-07-05T20:15:00.365Z,16.83
2023-07-05T20:17:32.425Z,16.78
2023-07-05T20:20:05.232Z,16.74
2023-07-05T20:22:36.949Z,16.73
2023-07-05T20:25:10.558Z,16.70
2023-07-05T20:27:43.002Z,16.69
2023-07-05T20:30:17.294Z,16.65
2023-07-05T20:32:49.524Z,16.62
2023-07-05T20:35:21.856Z,16.60
2023-07-05T20:37:59.741Z,16.58
2023-07-05T20:40:34.261Z,16.55
2023-07-05T20:43:06.199Z,16.54
2023-07-05T20:45:37.821Z,16.51
2023-07-05T20:48:10.408Z,16.47
2023-07-05T20:50:42.442Z,16.44
2023-07-05T20:53:16.222Z,16.41
2023-07-05T20:55:48.173Z,16.36
2023-07-05T20:58:20.625Z,16.21
2023-07-05T21:00:56.853Z,16.03
2023-07-05T21:03:29.097Z,15.89
2023-07-05T21:06:02.663Z,15.82
2023-07-05T21:08:36.968Z,15.77
2023-07-05T21:11:09.222Z,15.72
2023-07-05T21:13:41.124Z,15.76
2023-07-05T21:16:14.396Z,15.78
2023-07-05T21:18:46.080Z,15.76
2023-07-05T21:21:18.678Z,15.70
2023-07-05T21:23:50.863Z,15.66
2023-07-05T21:26:22.670Z,15.62
2023-07-05T21:28:54.679Z,15.63
2023-07-05T21:31:27.141Z,15.69
2023-07-05T21:33:58.851Z,15.69
2023-07-05T21:36:32.284Z,15.68
2023-07-05T21:39:06.104Z,15.58
2023-07-05T21:41:38.271Z,15.46
2023-07-05T21:44:14.048Z,15.35
2023-07-05T21:46:46.686Z,15.25
2023-07-05T21:49:18.733Z,15.17
2023-07-05T21:51:51.903Z,15.09
2023-07-05T21:54:23.892Z,15.03
2023-07-05T21:56:57.528Z,14.96
2023-07-05T21:59:29.669Z,14.90
2023-07-05T22:02:01.728Z,14.83
2023-07-05T22:04:33.693Z,14.75
2023-07-05T22:07:05.870Z,14.68
2023-07-05T22:09:38.270Z,14.64
2023-07-05T22:12:13.654Z,14.64
2023-07-05T22:14:59.553Z,14.68
2023-07-05T22:17:33.541Z,14.80
2023-07-05T22:20:12.706Z,14.91
2023-07-05T22:22:45.059Z,15.02
2023-07-05T22:25:16.882Z,15.09
2023-07-05T22:27:48.840Z,15.16
2023-07-05T22:30:20.857Z,15.20
2023-07-05T22:32:55.190Z,15.23
2023-07-05T22:35:29.681Z,15.24
2023-07-05T22:38:01.438Z,15.23
2023-07-05T22:40:33.775Z,15.23
2023-07-05T22:43:06.548Z,15.15
2023-07-05T22:45:38.993Z,14.97
2023-07-05T22:48:10.662Z,14.84
2023-07-05T22:50:44.418Z,14.74
2023-07-05T22:53:16.309Z,14.61
2023-07-05T22:55:48.329Z,14.50
2023-07-05T22:58:21.037Z,14.44
2023-07-05T23:00:54.564Z,14.40
2023-07-05T23:03:26.845Z,14.33
2023-07-05T23:06:04.801Z,14.29
2023-07-05T23:08:38.122Z,14.27
2023-07-05T23:11:13.156Z,14.28
2023-07-05T23:13:47.191Z,14.29
2023-07-05T23:16:19.387Z,14.28
2023-07-05T23:18:51.664Z,14.24
2023-07-05T23:21:23.405Z,14.19
2023-07-05T23:23:55.477Z,14.13
2023-07-05T23:26:27.447Z,14.12
2023-07-05T23:28:59.113Z,14.09
2023-07-05T23:31:32.745Z,14.09
2023-07-05T23:34:06.153Z,14.08
2023-07-05T23:36:37.858Z,14.02
2023-07-05T23:39:11.779Z,13.96
2023-07-05T23:41:46.050Z,13.95
2023-07-05T23:44:18.714Z,13.94
2023-07-05T23:46:52.330Z,13.88
2023-07-05T23:49:24.764Z,13.83
2023-07-05T23:51:57.849Z,13.79
2023-07-05T23:54:32.952Z,13.77
2023-07-05T23:57:03.786Z,13.80
2023-07-05T23:59:33.895Z,13.84
